sensor_id;sensor_type;location;lat;lon;timestamp;pressure;altitude;pressure_sealevel;temperature;humidity
74163;BME280;62515;52.758;5.076;2023-07-29T00:01:21;100776.47;;;16.87;100.00
74163;BME280;62515;52.758;5.076;2023-07-29T00:03:48;100762.78;;;16.81;100.00
74163;BME280;62515;52.758;5.076;2023-07-29T00:06:15;100772.69;;;16.80;100.00
74163;BME280;62515;52.758;5.076;2023-07-29T00:08:42;100763.91;;;16.78;100.00
74163;BME280;62515;52.758;5.076;2023-07-29T00:11:08;100752.66;;;16.65;100.00
74163;BME280;62515;52.758;5.076;2023-07-29T00:13:35;100749.69;;;16.68;100.00
74163;BME280;62515;52.758;5.076;2023-07-29T00:16:03;100765.06;;;16.76;100.00
74163;BME280;62515;52.758;5.076;2023-07-29T00:18:30;100758.84;;;16.75;100.00
74163;BME280;62515;52.758;5.076;2023-07-29T00:20:57;100758.84;;;16.75;100.00
74163;BME280;62515;52.758;5.076;2023-07-29T00:23:24;100762.84;;;16.71;100.00
74163;BME280;62515;52.758;5.076;2023-07-29T00:25:51;100757.47;;;16.71;100.00
74163;BME280;62515;52.758;5.076;2023-07-29T00:28:17;100758.44;;;16.70;100.00
74163;BME280;62515;52.758;5.076;2023-07-29T00:30:48;100757.75;;;16.68;100.00
74163;BME280;62515;52.758;5.076;2023-07-29T00:33:16;100744.59;;;16.65;100.00
74163;BME280;62515;52.758;5.076;2023-07-29T00:35:43;100746.75;;;16.61;100.00
74163;BME280;62515;52.758;5.076;2023-07-29T00:38:10;100735.78;;;16.55;100.00
74163;BME280;62515;52.758;5.076;2023-07-29T00:40:37;100740.84;;;16.58;100.00
74163;BME280;62515;52.758;5.076;2023-07-29T00:43:04;100734.91;;;16.54;100.00
74163;BME280;62515;52.758;5.076;2023-07-29T00:45:31;100733.50;;;16.50;100.00
74163;BME280;62515;52.758;5.076;2023-07-29T00:47:59;100720.81;;;16.43;100.00
74163;BME280;62515;52.758;5.076;2023-07-29T00:50:29;100726.91;;;16.45;100.00
74163;BME280;62515;52.758;5.076;2023-07-29T00:52:59;100713.22;;;16.38;100.00
74163;BME280;62515;52.758;5.076;2023-07-29T00:55:26;100713.66;;;16.34;100.00
74163;BME280;62515;52.758;5.076;2023-07-29T00:57:53;100722.81;;;16.41;100.00
74163;BME280;62515;52.758;5.076;2023-07-29T01:00:21;100709.59;;;16.30;100.00
74163;BME280;62515;52.758;5.076;2023-07-29T01:02:47;100717.75;;;16.38;100.00
74163;BME280;62515;52.758;5.076;2023-07-29T01:05:16;100717.88;;;16.36;100.00
74163;BME280;62515;52.758;5.076;2023-07-29T01:07:51;100719.03;;;16.34;100.00
74163;BME280;62515;52.758;5.076;2023-07-29T01:10:30;100708.03;;;16.27;100.00
74163;BME280;62515;52.758;5.076;2023-07-29T01:13:05;100709.59;;;16.30;100.00
74163;BME280;62515;52.758;5.076;2023-07-29T01:15:37;100714.28;;;16.28;100.00
74163;BME280;62515;52.758;5.076;2023-07-29T01:18:11;100700.44;;;16.22;100.00
74163;BME280;62515;52.758;5.076;2023-07-29T01:20:40;100695.97;;;16.13;100.00
74163;BME280;62515;52.758;5.076;2023-07-29T01:23:11;100711.09;;;16.14;100.00
74163;BME280;62515;52.758;5.076;2023-07-29T01:25:40;100699.19;;;16.17;100.00
74163;BME280;62515;52.758;5.076;2023-07-29T01:28:06;100706.41;;;16.16;100.00
74163;BME280;62515;52.758;5.076;2023-07-29T01:30:40;100695.81;;;16.15;100.00
74163;BME280;62515;52.758;5.076;2023-07-29T01:33:16;100692.59;;;16.11;100.00
74163;BME280;62515;52.758;5.076;2023-07-29T01:35:47;100705.28;;;16.09;100.00
74163;BME280;62515;52.758;5.076;2023-07-29T01:38:17;100696.16;;;16.02;100.00
74163;BME280;62515;52.758;5.076;2023-07-29T01:40:47;100697.84;;;16.03;100.00
74163;BME280;62515;52.758;5.076;2023-07-29T01:43:14;100690.09;;;16.00;100.00
74163;BME280;62515;52.758;5.076;2023-07-29T01:45:41;100701.53;;;16.02;100.00
74163;BME280;62515;52.758;5.076;2023-07-29T01:48:08;100697.44;;;15.98;100.00
74163;BME280;62515;52.758;5.076;2023-07-29T01:50:35;100688.97;;;15.93;100.00
74163;BME280;62515;52.758;5.076;2023-07-29T01:53:02;100698.72;;;15.94;100.00
74163;BME280;62515;52.758;5.076;2023-07-29T01:55:29;100702.13;;;15.96;100.00
74163;BME280;62515;52.758;5.076;2023-07-29T01:57:57;100701.41;;;15.94;100.00
74163;BME280;62515;52.758;5.076;2023-07-29T02:00:25;100706.78;;;15.94;100.00
74163;BME280;62515;52.758;5.076;2023-07-29T02:02:51;100703.00;;;15.87;100.00
74163;BME280;62515;52.758;5.076;2023-07-29T02:05:18;100704.41;;;15.91;100.00
74163;BME280;62515;52.758;5.076;2023-07-29T02:07:45;100699.31;;;15.88;100.00
74163;BME280;62515;52.758;5.076;2023-07-29T02:10:12;100681.72;;;15.76;100.00
74163;BME280;62515;52.758;5.076;2023-07-29T02:12:38;100683.00;;;15.72;100.00
74163;BME280;62515;52.758;5.076;2023-07-29T02:15:08;100680.63;;;15.69;100.00
74163;BME280;62515;52.758;5.076;2023-07-29T02:17:35;100685.28;;;15.67;100.00
74163;BME280;62515;52.758;5.076;2023-07-29T02:20:02;100689.22;;;15.73;100.00
74163;BME280;62515;52.758;5.076;2023-07-29T02:22:29;100675.69;;;15.64;100.00
74163;BME280;62515;52.758;5.076;2023-07-29T02:24:55;100679.63;;;15.70;100.00
74163;BME280;62515;52.758;5.076;2023-07-29T02:27:22;100673.13;;;15.73;100.00
74163;BME280;62515;52.758;5.076;2023-07-29T02:29:49;100665.91;;;15.73;100.00
74163;BME280;62515;52.758;5.076;2023-07-29T02:32:18;100664.91;;;15.74;100.00
74163;BME280;62515;52.758;5.076;2023-07-29T02:34:44;100667.75;;;15.73;100.00
74163;BME280;62515;52.758;5.076;2023-07-29T02:37:11;100669.59;;;15.72;100.00
74163;BME280;62515;52.758;5.076;2023-07-29T02:39:38;100671.28;;;15.73;100.00
74163;BME280;62515;52.758;5.076;2023-07-29T02:42:05;100662.38;;;15.73;100.00
74163;BME280;62515;52.758;5.076;2023-07-29T02:44:32;100667.28;;;15.77;100.00
74163;BME280;62515;52.758;5.076;2023-07-29T02:46:59;100664.06;;;15.83;100.00
74163;BME280;62515;52.758;5.076;2023-07-29T02:49:27;100665.72;;;15.84;100.00
74163;BME280;62515;52.758;5.076;2023-07-29T02:51:54;100671.38;;;15.81;100.00
74163;BME280;62515;52.758;5.076;2023-07-29T02:54:21;100660.09;;;15.78;100.00
74163;BME280;62515;52.758;5.076;2023-07-29T02:56:47;100657.28;;;15.79;100.00
74163;BME280;62515;52.758;5.076;2023-07-29T02:59:14;100663.63;;;15.78;100.00
74163;BME280;62515;52.758;5.076;2023-07-29T03:01:41;100657.03;;;15.73;100.00
74163;BME280;62515;52.758;5.076;2023-07-29T03:04:07;100659.41;;;15.76;100.00
74163;BME280;62515;52.758;5.076;2023-07-29T03:06:35;100658.94;;;15.80;100.00
74163;BME280;62515;52.758;5.076;2023-07-29T03:09:02;100663.34;;;15.81;100.00
74163;BME280;62515;52.758;5.076;2023-07-29T03:11:29;100652.63;;;15.72;100.00
74163;BME280;62515;52.758;5.076;2023-07-29T03:13:56;100646.59;;;15.69;100.00
74163;BME280;62515;52.758;5.076;2023-07-29T03:16:23;100653.31;;;15.83;100.00
74163;BME280;62515;52.758;5.076;2023-07-29T03:18:54;100646.38;;;15.81;100.00
74163;BME280;62515;52.758;5.076;2023-07-29T03:21:20;100633.25;;;15.78;100.00
74163;BME280;62515;52.758;5.076;2023-07-29T03:23:48;100646.53;;;15.79;100.00
74163;BME280;62515;52.758;5.076;2023-07-29T03:26:15;100619.91;;;15.68;100.00
74163;BME280;62515;52.758;5.076;2023-07-29T03:28:42;100630.75;;;15.76;100.00
74163;BME280;62515;52.758;5.076;2023-07-29T03:31:10;100617.22;;;15.68;100.00
74163;BME280;62515;52.758;5.076;2023-07-29T03:33:38;100629.47;;;15.70;100.00
74163;BME280;62515;52.758;5.076;2023-07-29T03:36:05;100623.72;;;15.65;100.00
74163;BME280;62515;52.758;5.076;2023-07-29T03:38:32;100630.88;;;15.75;100.00
74163;BME280;62515;52.758;5.076;2023-07-29T03:41:00;100637.38;;;15.72;100.00
74163;BME280;62515;52.758;5.076;2023-07-29T03:43:27;100641.06;;;15.71;100.00
74163;BME280;62515;52.758;5.076;2023-07-29T03:45:56;100635.69;;;15.71;100.00
74163;BME280;62515;52.758;5.076;2023-07-29T03:48:23;100629.63;;;15.69;100.00
74163;BME280;62515;52.758;5.076;2023-07-29T03:50:49;100645.31;;;15.74;100.00
74163;BME280;62515;52.758;5.076;2023-07-29T03:53:16;100636.53;;;15.72;100.00
74163;BME280;62515;52.758;5.076;2023-07-29T03:55:43;100610.47;;;15.54;100.00
74163;BME280;62515;52.758;5.076;2023-07-29T03:58:11;100632.91;;;15.63;100.00
74163;BME280;62515;52.758;5.076;2023-07-29T04:00:38;100638.41;;;15.61;100.00
74163;BME280;62515;52.758;5.076;2023-07-29T04:03:05;100624.19;;;15.51;100.00
74163;BME280;62515;52.758;5.076;2023-07-29T04:05:32;100627.97;;;15.58;100.00
74163;BME280;62515;52.758;5.076;2023-07-29T04:07:59;100628.16;;;15.57;100.00
74163;BME280;62515;52.758;5.076;2023-07-29T04:10:26;100628.28;;;15.55;100.00
74163;BME280;62515;52.758;5.076;2023-07-29T04:12:53;100632.78;;;15.55;100.00
74163;BME280;62515;52.758;5.076;2023-07-29T04:15:22;100638.41;;;15.61;100.00
74163;BME280;62515;52.758;5.076;2023-07-29T04:17:48;100639.25;;;15.62;100.00
74163;BME280;62515;52.758;5.076;2023-07-29T04:20:15;100618.69;;;15.53;100.00
74163;BME280;62515;52.758;5.076;2023-07-29T04:22:42;100622.63;;;15.58;100.00
74163;BME280;62515;52.758;5.076;2023-07-29T04:25:09;100631.50;;;15.59;100.00
74163;BME280;62515;52.758;5.076;2023-07-29T04:27:36;100636.16;;;15.66;100.00
74163;BME280;62515;52.758;5.076;2023-07-29T04:30:03;100638.66;;;15.68;100.00
74163;BME280;62515;52.758;5.076;2023-07-29T04:32:31;100644.88;;;15.68;100.00
74163;BME280;62515;52.758;5.076;2023-07-29T04:34:58;100653.50;;;15.72;100.00
74163;BME280;62515;52.758;5.076;2023-07-29T04:37:25;100641.34;;;15.68;100.00
74163;BME280;62515;52.758;5.076;2023-07-29T04:39:52;100647.41;;;15.80;100.00
74163;BME280;62515;52.758;5.076;2023-07-29T04:42:18;100658.38;;;15.86;100.00
74163;BME280;62515;52.758;5.076;2023-07-29T04:44:45;100665.38;;;15.97;100.00
74163;BME280;62515;52.758;5.076;2023-07-29T04:47:12;100652.97;;;15.96;100.00
74163;BME280;62515;52.758;5.076;2023-07-29T04:49:40;100661.09;;;16.04;100.00
74163;BME280;62515;52.758;5.076;2023-07-29T04:52:08;100657.44;;;16.05;100.00
74163;BME280;62515;52.758;5.076;2023-07-29T04:54:34;100657.75;;;16.02;100.00
74163;BME280;62515;52.758;5.076;2023-07-29T04:57:01;100640.66;;;15.93;100.00
74163;BME280;62515;52.758;5.076;2023-07-29T04:59:28;100646.03;;;15.93;100.00
74163;BME280;62515;52.758;5.076;2023-07-29T05:01:55;100654.88;;;16.03;100.00
74163;BME280;62515;52.758;5.076;2023-07-29T05:04:21;100654.59;;;16.06;100.00
74163;BME280;62515;52.758;5.076;2023-07-29T05:06:50;100664.22;;;16.09;100.00
74163;BME280;62515;52.758;5.076;2023-07-29T05:09:18;100640.91;;;16.00;100.00
74163;BME280;62515;52.758;5.076;2023-07-29T05:11:44;100647.38;;;16.07;100.00
74163;BME280;62515;52.758;5.076;2023-07-29T05:14:12;100649.38;;;16.05;100.00
74163;BME280;62515;52.758;5.076;2023-07-29T05:16:41;100643.56;;;16.09;100.00
74163;BME280;62515;52.758;5.076;2023-07-29T05:19:08;100655.78;;;16.21;100.00
74163;BME280;62515;52.758;5.076;2023-07-29T05:21:35;100644.38;;;16.37;100.00
74163;BME280;62515;52.758;5.076;2023-07-29T05:24:03;100637.34;;;16.54;100.00
74163;BME280;62515;52.758;5.076;2023-07-29T05:26:31;100641.44;;;16.76;100.00
74163;BME280;62515;52.758;5.076;2023-07-29T05:28:57;100635.44;;;16.99;100.00
74163;BME280;62515;52.758;5.076;2023-07-29T05:31:24;100645.00;;;17.19;100.00
74163;BME280;62515;52.758;5.076;2023-07-29T05:33:51;100644.28;;;17.35;100.00
74163;BME280;62515;52.758;5.076;2023-07-29T05:36:17;100646.34;;;17.49;100.00
74163;BME280;62515;52.758;5.076;2023-07-29T05:38:44;100646.00;;;17.62;100.00
74163;BME280;62515;52.758;5.076;2023-07-29T05:41:12;100647.88;;;17.69;100.00
74163;BME280;62515;52.758;5.076;2023-07-29T05:43:39;100651.78;;;17.75;100.00
74163;BME280;62515;52.758;5.076;2023-07-29T05:46:06;100648.97;;;17.85;100.00
74163;BME280;62515;52.758;5.076;2023-07-29T05:48:33;100646.28;;;17.85;100.00
74163;BME280;62515;52.758;5.076;2023-07-29T05:51:02;100650.16;;;17.90;100.00
74163;BME280;62515;52.758;5.076;2023-07-29T05:53:28;100658.59;;;17.95;100.00
74163;BME280;62515;52.758;5.076;2023-07-29T05:55:55;100652.53;;;17.93;100.00
74163;BME280;62515;52.758;5.076;2023-07-29T05:58:24;100656.59;;;17.97;100.00
74163;BME280;62515;52.758;5.076;2023-07-29T06:00:51;100658.91;;;17.92;100.00
74163;BME280;62515;52.758;5.076;2023-07-29T06:03:18;100656.59;;;17.97;100.00
74163;BME280;62515;52.758;5.076;2023-07-29T06:05:46;100652.56;;;18.01;100.00
74163;BME280;62515;52.758;5.076;2023-07-29T06:08:12;100655.94;;;18.03;100.00
74163;BME280;62515;52.758;5.076;2023-07-29T06:10:39;100657.66;;;18.12;100.00
74163;BME280;62515;52.758;5.076;2023-07-29T06:13:06;100650.66;;;18.36;100.00
74163;BME280;62515;52.758;5.076;2023-07-29T06:15:34;100641.66;;;18.61;100.00
74163;BME280;62515;52.758;5.076;2023-07-29T06:18:01;100639.34;;;18.82;100.00
74163;BME280;62515;52.758;5.076;2023-07-29T06:20:28;100645.06;;;18.87;100.00
74163;BME280;62515;52.758;5.076;2023-07-29T06:22:55;100634.75;;;18.74;100.00
74163;BME280;62515;52.758;5.076;2023-07-29T06:25:22;100622.47;;;18.72;100.00
74163;BME280;62515;52.758;5.076;2023-07-29T06:27:48;100636.78;;;18.80;100.00
74163;BME280;62515;52.758;5.076;2023-07-29T06:30:15;100631.91;;;18.84;100.00
74163;BME280;62515;52.758;5.076;2023-07-29T06:32:43;100638.47;;;18.90;100.00
74163;BME280;62515;52.758;5.076;2023-07-29T06:35:10;100647.41;;;18.90;100.00
74163;BME280;62515;52.758;5.076;2023-07-29T06:37:37;100651.97;;;18.98;100.00
74163;BME280;62515;52.758;5.076;2023-07-29T06:40:05;100646.91;;;19.03;100.00
74163;BME280;62515;52.758;5.076;2023-07-29T06:42:31;100650.78;;;19.00;100.00
74163;BME280;62515;52.758;5.076;2023-07-29T06:44:58;100652.13;;;18.96;100.00
74163;BME280;62515;52.758;5.076;2023-07-29T06:47:25;100650.28;;;19.13;100.00
74163;BME280;62515;52.758;5.076;2023-07-29T06:49:53;100658.38;;;19.21;100.00
74163;BME280;62515;52.758;5.076;2023-07-29T06:52:20;100658.38;;;19.37;100.00
74163;BME280;62515;52.758;5.076;2023-07-29T06:54:47;100662.56;;;19.40;100.00
74163;BME280;62515;52.758;5.076;2023-07-29T06:57:14;100661.22;;;19.36;100.00
74163;BME280;62515;52.758;5.076;2023-07-29T06:59:40;100661.59;;;19.24;100.00
74163;BME280;62515;52.758;5.076;2023-07-29T07:02:07;100642.72;;;19.08;100.00
74163;BME280;62515;52.758;5.076;2023-07-29T07:04:34;100668.00;;;19.07;100.00
74163;BME280;62515;52.758;5.076;2023-07-29T07:07:02;100669.69;;;19.08;100.00
74163;BME280;62515;52.758;5.076;2023-07-29T07:09:29;100655.00;;;19.27;100.00
74163;BME280;62515;52.758;5.076;2023-07-29T07:11:56;100663.06;;;19.51;100.00
74163;BME280;62515;52.758;5.076;2023-07-29T07:14:22;100671.09;;;19.83;100.00
74163;BME280;62515;52.758;5.076;2023-07-29T07:16:49;100662.25;;;20.06;100.00
74163;BME280;62515;52.758;5.076;2023-07-29T07:19:16;100656.50;;;20.48;100.00
74163;BME280;62515;52.758;5.076;2023-07-29T07:21:42;100661.31;;;20.60;100.00
74163;BME280;62515;52.758;5.076;2023-07-29T07:24:11;100646.56;;;20.94;100.00
74163;BME280;62515;52.758;5.076;2023-07-29T07:26:37;100647.06;;;21.34;100.00
74163;BME280;62515;52.758;5.076;2023-07-29T07:29:05;100636.66;;;21.23;100.00
74163;BME280;62515;52.758;5.076;2023-07-29T07:31:33;100649.16;;;20.87;100.00
74163;BME280;62515;52.758;5.076;2023-07-29T07:34:00;100646.84;;;20.99;100.00
74163;BME280;62515;52.758;5.076;2023-07-29T07:36:27;100651.13;;;20.93;100.00
74163;BME280;62515;52.758;5.076;2023-07-29T07:38:53;100638.44;;;20.71;100.00
74163;BME280;62515;52.758;5.076;2023-07-29T07:41:21;100651.38;;;20.53;100.00
74163;BME280;62515;52.758;5.076;2023-07-29T07:43:48;100655.59;;;20.24;100.00
74163;BME280;62515;52.758;5.076;2023-07-29T07:46:15;100660.59;;;19.97;100.00
74163;BME280;62515;52.758;5.076;2023-07-29T07:48:42;100664.53;;;19.86;100.00
74163;BME280;62515;52.758;5.076;2023-07-29T07:51:11;100654.28;;;20.12;100.00
74163;BME280;62515;52.758;5.076;2023-07-29T07:53:38;100645.47;;;21.03;100.00
74163;BME280;62515;52.758;5.076;2023-07-29T07:56:05;100644.59;;;22.99;100.00
74163;BME280;62515;52.758;5.076;2023-07-29T07:58:34;100645.16;;;23.65;100.00
74163;BME280;62515;52.758;5.076;2023-07-29T08:01:02;100639.69;;;22.67;100.00
74163;BME280;62515;52.758;5.076;2023-07-29T08:03:29;100642.44;;;21.87;100.00
74163;BME280;62515;52.758;5.076;2023-07-29T08:05:55;100634.28;;;21.43;100.00
74163;BME280;62515;52.758;5.076;2023-07-29T08:08:22;100621.09;;;21.03;100.00
74163;BME280;62515;52.758;5.076;2023-07-29T08:10:49;100653.84;;;21.16;100.00
74163;BME280;62515;52.758;5.076;2023-07-29T08:13:15;100651.78;;;20.95;100.00
74163;BME280;62515;52.758;5.076;2023-07-29T08:15:47;100655.72;;;21.07;100.00
74163;BME280;62515;52.758;5.076;2023-07-29T08:18:14;100658.44;;;20.84;100.00
74163;BME280;62515;52.758;5.076;2023-07-29T08:20:40;100663.34;;;20.58;100.00
74163;BME280;62515;52.758;5.076;2023-07-29T08:23:07;100670.59;;;20.35;100.00
74163;BME280;62515;52.758;5.076;2023-07-29T08:25:34;100676.72;;;20.52;100.00
74163;BME280;62515;52.758;5.076;2023-07-29T08:28:01;100646.72;;;21.15;100.00
74163;BME280;62515;52.758;5.076;2023-07-29T08:30:28;100662.94;;;21.37;100.00
74163;BME280;62515;52.758;5.076;2023-07-29T08:32:56;100661.34;;;21.28;100.00
74163;BME280;62515;52.758;5.076;2023-07-29T08:35:22;100662.53;;;21.03;100.00
74163;BME280;62515;52.758;5.076;2023-07-29T08:37:49;100660.53;;;20.74;100.00
74163;BME280;62515;52.758;5.076;2023-07-29T08:40:16;100668.81;;;20.11;100.00
74163;BME280;62515;52.758;5.076;2023-07-29T08:42:45;100677.19;;;20.32;100.00
74163;BME280;62515;52.758;5.076;2023-07-29T08:45:13;100675.56;;;20.15;100.00
74163;BME280;62515;52.758;5.076;2023-07-29T08:47:41;100683.31;;;20.10;100.00
74163;BME280;62515;52.758;5.076;2023-07-29T08:50:09;100682.91;;;19.91;100.00
74163;BME280;62515;52.758;5.076;2023-07-29T08:52:40;100689.09;;;20.07;100.00
74163;BME280;62515;52.758;5.076;2023-07-29T08:55:08;100674.84;;;20.21;100.00
74163;BME280;62515;52.758;5.076;2023-07-29T08:57:35;100685.00;;;20.27;100.00
74163;BME280;62515;52.758;5.076;2023-07-29T09:00:02;100656.41;;;20.33;100.00
74163;BME280;62515;52.758;5.076;2023-07-29T09:02:29;100669.66;;;20.51;100.00
74163;BME280;62515;52.758;5.076;2023-07-29T09:04:56;100660.31;;;21.29;100.00
74163;BME280;62515;52.758;5.076;2023-07-29T09:07:24;100661.72;;;21.40;100.00
74163;BME280;62515;52.758;5.076;2023-07-29T09:09:51;100669.50;;;21.58;100.00
74163;BME280;62515;52.758;5.076;2023-07-29T09:12:18;100666.06;;;21.49;100.00
74163;BME280;62515;52.758;5.076;2023-07-29T09:14:45;100672.66;;;21.47;100.00
74163;BME280;62515;52.758;5.076;2023-07-29T09:17:12;100680.81;;;21.61;100.00
74163;BME280;62515;52.758;5.076;2023-07-29T09:19:39;100672.28;;;21.50;100.00
74163;BME280;62515;52.758;5.076;2023-07-29T09:22:17;100679.41;;;21.05;100.00
74163;BME280;62515;52.758;5.076;2023-07-29T09:24:45;100689.38;;;20.59;100.00
74163;BME280;62515;52.758;5.076;2023-07-29T09:27:23;100696.31;;;20.15;100.00
74163;BME280;62515;52.758;5.076;2023-07-29T09:29:50;100703.03;;;19.64;100.00
74163;BME280;62515;52.758;5.076;2023-07-29T09:32:20;100700.72;;;19.53;100.00
74163;BME280;62515;52.758;5.076;2023-07-29T09:34:47;100699.50;;;19.71;100.00
74163;BME280;62515;52.758;5.076;2023-07-29T09:37:17;100698.69;;;20.10;100.00
74163;BME280;62515;52.758;5.076;2023-07-29T09:39:46;100697.97;;;20.24;100.00
74163;BME280;62515;52.758;5.076;2023-07-29T09:42:17;100698.94;;;20.39;100.00
74163;BME280;62515;52.758;5.076;2023-07-29T09:44:44;100701.69;;;20.31;100.00
74163;BME280;62515;52.758;5.076;2023-07-29T09:47:19;100697.22;;;19.99;100.00
74163;BME280;62515;52.758;5.076;2023-07-29T09:49:46;100692.78;;;20.06;100.00
74163;BME280;62515;52.758;5.076;2023-07-29T09:52:14;100693.09;;;20.19;100.00
74163;BME280;62515;52.758;5.076;2023-07-29T09:54:42;100669.94;;;20.64;100.00
74163;BME280;62515;52.758;5.076;2023-07-29T09:57:10;100690.78;;;21.01;100.00
74163;BME280;62515;52.758;5.076;2023-07-29T09:59:37;100691.25;;;20.81;100.00
74163;BME280;62515;52.758;5.076;2023-07-29T10:02:04;100667.28;;;20.78;100.00
74163;BME280;62515;52.758;5.076;2023-07-29T10:04:33;100679.13;;;21.46;100.00
74163;BME280;62515;52.758;5.076;2023-07-29T10:07:00;100702.16;;;21.42;100.00
74163;BME280;62515;52.758;5.076;2023-07-29T10:09:28;100699.16;;;21.14;100.00
74163;BME280;62515;52.758;5.076;2023-07-29T10:11:56;100707.22;;;20.99;100.00
74163;BME280;62515;52.758;5.076;2023-07-29T10:14:27;100713.09;;;20.80;100.00
74163;BME280;62515;52.758;5.076;2023-07-29T10:16:54;100716.72;;;20.33;100.00
74163;BME280;62515;52.758;5.076;2023-07-29T10:19:22;100705.50;;;19.98;100.00
74163;BME280;62515;52.758;5.076;2023-07-29T10:21:50;100714.31;;;21.00;100.00
74163;BME280;62515;52.758;5.076;2023-07-29T10:24:19;100709.50;;;21.10;100.00
74163;BME280;62515;52.758;5.076;2023-07-29T10:26:49;100696.56;;;22.10;100.00
74163;BME280;62515;52.758;5.076;2023-07-29T10:29:19;100703.16;;;22.66;100.00
74163;BME280;62515;52.758;5.076;2023-07-29T10:31:48;100692.31;;;23.08;100.00
74163;BME280;62515;52.758;5.076;2023-07-29T10:34:18;100685.94;;;23.99;100.00
74163;BME280;62515;52.758;5.076;2023-07-29T10:36:46;100693.69;;;24.36;100.00
74163;BME280;62515;52.758;5.076;2023-07-29T10:39:14;100692.16;;;24.75;100.00
74163;BME280;62515;52.758;5.076;2023-07-29T10:41:57;100694.91;;;23.93;100.00
74163;BME280;62515;52.758;5.076;2023-07-29T10:44:47;100690.84;;;23.55;100.00
74163;BME280;62515;52.758;5.076;2023-07-29T10:47:16;100686.38;;;22.98;100.00
74163;BME280;62515;52.758;5.076;2023-07-29T10:49:43;100695.16;;;22.64;100.00
74163;BME280;62515;52.758;5.076;2023-07-29T10:52:13;100698.22;;;22.40;100.00
74163;BME280;62515;52.758;5.076;2023-07-29T10:54:44;100695.91;;;21.93;100.00
74163;BME280;62515;52.758;5.076;2023-07-29T10:57:14;100695.56;;;21.59;100.00
74163;BME280;62515;52.758;5.076;2023-07-29T10:59:53;100707.78;;;21.55;100.00
74163;BME280;62515;52.758;5.076;2023-07-29T11:02:28;100704.44;;;21.30;100.00
74163;BME280;62515;52.758;5.076;2023-07-29T11:04:55;100710.84;;;21.14;100.00
74163;BME280;62515;52.758;5.076;2023-07-29T11:07:22;100705.13;;;21.09;100.00
74163;BME280;62515;52.758;5.076;2023-07-29T11:09:54;100717.53;;;20.73;100.00
74163;BME280;62515;52.758;5.076;2023-07-29T11:12:40;100703.34;;;20.71;100.00
74163;BME280;62515;52.758;5.076;2023-07-29T11:15:15;100719.03;;;20.98;100.00
74163;BME280;62515;52.758;5.076;2023-07-29T11:17:44;100719.63;;;21.54;100.00
74163;BME280;62515;52.758;5.076;2023-07-29T11:20:12;100714.84;;;22.08;100.00
74163;BME280;62515;52.758;5.076;2023-07-29T11:22:40;100719.34;;;22.30;100.00
74163;BME280;62515;52.758;5.076;2023-07-29T11:25:08;100714.41;;;21.89;100.00
74163;BME280;62515;52.758;5.076;2023-07-29T11:27:35;100712.09;;;21.64;100.00
74163;BME280;62515;52.758;5.076;2023-07-29T11:30:05;100720.00;;;21.13;100.00
74163;BME280;62515;52.758;5.076;2023-07-29T11:32:32;100721.78;;;21.21;100.00
74163;BME280;62515;52.758;5.076;2023-07-29T11:35:05;100716.56;;;20.88;100.00
74163;BME280;62515;52.758;5.076;2023-07-29T11:37:33;100726.38;;;20.59;100.00
74163;BME280;62515;52.758;5.076;2023-07-29T11:40:00;100713.28;;;20.48;100.00
74163;BME280;62515;52.758;5.076;2023-07-29T11:42:27;100727.00;;;20.69;100.00
74163;BME280;62515;52.758;5.076;2023-07-29T11:44:56;100729.09;;;20.59;100.00
74163;BME280;62515;52.758;5.076;2023-07-29T11:47:22;100714.53;;;20.29;100.00
74163;BME280;62515;52.758;5.076;2023-07-29T11:49:49;100728.75;;;20.15;100.00
74163;BME280;62515;52.758;5.076;2023-07-29T11:52:18;100738.53;;;20.16;100.00
74163;BME280;62515;52.758;5.076;2023-07-29T11:54:46;100727.41;;;21.57;100.00
74163;BME280;62515;52.758;5.076;2023-07-29T11:57:13;100705.75;;;23.16;100.00
74163;BME280;62515;52.758;5.076;2023-07-29T11:59:41;100723.88;;;25.02;100.00
74163;BME280;62515;52.758;5.076;2023-07-29T12:02:10;100725.03;;;24.73;100.00
74163;BME280;62515;52.758;5.076;2023-07-29T12:04:39;100730.66;;;23.96;100.00
74163;BME280;62515;52.758;5.076;2023-07-29T12:07:06;100731.38;;;24.05;100.00
74163;BME280;62515;52.758;5.076;2023-07-29T12:09:35;100730.97;;;24.42;100.00
74163;BME280;62515;52.758;5.076;2023-07-29T12:12:03;100713.94;;;24.81;100.00
74163;BME280;62515;52.758;5.076;2023-07-29T12:14:30;100725.16;;;25.06;100.00
74163;BME280;62515;52.758;5.076;2023-07-29T12:16:59;100724.50;;;24.50;100.00
74163;BME280;62515;52.758;5.076;2023-07-29T12:19:31;100741.03;;;24.48;100.00
74163;BME280;62515;52.758;5.076;2023-07-29T12:21:58;100733.75;;;24.15;100.00
74163;BME280;62515;52.758;5.076;2023-07-29T12:24:25;100727.13;;;23.96;100.00
74163;BME280;62515;52.758;5.076;2023-07-29T12:26:53;100719.91;;;24.51;100.00
74163;BME280;62515;52.758;5.076;2023-07-29T12:29:20;100689.31;;;25.09;100.00
74163;BME280;62515;52.758;5.076;2023-07-29T12:31:47;100719.59;;;24.32;100.00
74163;BME280;62515;52.758;5.076;2023-07-29T12:34:17;100711.81;;;23.88;100.00
74163;BME280;62515;52.758;5.076;2023-07-29T12:36:46;100699.00;;;23.55;100.00
74163;BME280;62515;52.758;5.076;2023-07-29T12:39:17;100705.72;;;24.14;100.00
74163;BME280;62515;52.758;5.076;2023-07-29T12:41:44;100712.84;;;24.15;100.00
74163;BME280;62515;52.758;5.076;2023-07-29T12:44:12;100699.38;;;25.15;100.00